createdAt,value
2018-11-03T00:00:37.125Z,9.03
2018-11-03T00:03:06.905Z,10.63
2018-11-03T00:05:35.737Z,10.17
2018-11-03T00:08:04.768Z,9.97
2018-11-03T00:10:34.137Z,10.77
2018-11-03T00:13:03.999Z,9.23
2018-11-03T00:15:32.924Z,11.27
2018-11-03T00:18:02.589Z,8.23
2018-11-03T00:20:31.746Z,9.97
2018-11-03T00:23:01.125Z,8.60
2018-11-03T00:25:30.460Z,11.27
2018-11-03T00:27:59.117Z,9.80
2018-11-03T00:30:28.102Z,9.03
2018-11-03T00:32:58.456Z,7.00
2018-11-03T00:35:27.876Z,8.80
2018-11-03T00:37:56.913Z,8.97
2018-11-03T00:40:25.880Z,9.73
2018-11-03T00:42:54.932Z,9.10
2018-11-03T00:45:24.431Z,9.03
2018-11-03T00:47:53.502Z,9.60
2018-11-03T00:50:22.308Z,7.87
2018-11-03T00:52:51.969Z,9.50
2018-11-03T00:55:21.281Z,8.60
2018-11-03T00:57:50.368Z,7.90
2018-11-03T01:00:19.697Z,8.13
2018-11-03T01:02:49.920Z,8.73
2018-11-03T01:05:19.111Z,8.37
2018-11-03T01:07:48.548Z,8.40
2018-11-03T01:10:17.755Z,8.13
2018-11-03T01:12:47.739Z,8.97
2018-11-03T01:15:18.444Z,8.23
2018-11-03T01:17:47.378Z,8.50
2018-11-03T01:20:17.638Z,9.73
2018-11-03T01:22:47.126Z,9.27
2018-11-03T01:25:16.323Z,8.43
2018-11-03T01:27:45.955Z,11.63
2018-11-03T01:30:16.021Z,10.67
2018-11-03T01:32:45.173Z,10.53
2018-11-03T01:35:13.788Z,8.30
2018-11-03T01:37:42.703Z,9.77
2018-11-03T01:40:12.741Z,8.50
2018-11-03T01:42:41.757Z,7.63
2018-11-03T01:45:10.465Z,11.57
2018-11-03T01:47:39.402Z,11.03
2018-11-03T01:50:09.556Z,8.57
2018-11-03T01:52:39.197Z,9.13
2018-11-03T01:55:08.609Z,10.83
2018-11-03T01:57:38.107Z,9.70
2018-11-03T02:00:07.587Z,7.90
2018-11-03T02:02:36.351Z,10.50
2018-11-03T02:05:05.282Z,8.03
2018-11-03T02:07:34.960Z,9.37
2018-11-03T02:10:03.658Z,10.17
2018-11-03T02:12:33.186Z,10.03
2018-11-03T02:15:02.159Z,6.83
2018-11-03T02:17:31.170Z,9.77
2018-11-03T02:20:00.134Z,7.83
2018-11-03T02:22:29.403Z,7.87
2018-11-03T02:24:58.989Z,8.30
2018-11-03T02:27:27.997Z,9.50
2018-11-03T02:29:56.898Z,10.50
2018-11-03T02:32:26.417Z,9.03
2018-11-03T02:34:55.354Z,11.10
2018-11-03T02:37:25.005Z,9.93
2018-11-03T02:39:53.885Z,8.93
2018-11-03T02:42:22.702Z,7.07
2018-11-03T02:44:51.563Z,8.23
2018-11-03T02:47:20.372Z,8.20
2018-11-03T02:49:48.960Z,8.63
2018-11-03T02:52:18.434Z,7.40
2018-11-03T02:54:47.335Z,9.00
2018-11-03T02:57:16.229Z,8.23
2018-11-03T02:59:45.598Z,8.37
2018-11-03T03:02:15.095Z,9.43
2018-11-03T03:04:44.280Z,10.43
2018-11-03T03:07:14.004Z,9.93
2018-11-03T03:09:42.989Z,7.70
2018-11-03T03:12:12.182Z,10.70
2018-11-03T03:14:41.664Z,8.93
2018-11-03T03:17:11.044Z,7.80
2018-11-03T03:19:40.240Z,9.50
2018-11-03T03:22:09.151Z,8.50
2018-11-03T03:24:38.577Z,7.27
2018-11-03T03:27:07.136Z,8.43
2018-11-03T03:29:36.148Z,7.10
2018-11-03T03:32:05.626Z,11.40
2018-11-03T03:34:35.328Z,10.30
2018-11-03T03:37:04.472Z,8.47
2018-11-03T03:39:34.099Z,11.50
2018-11-03T03:42:03.537Z,10.30
2018-11-03T03:44:32.601Z,9.83
2018-11-03T03:47:02.056Z,9.73
2018-11-03T03:49:31.265Z,9.80
2018-11-03T03:52:00.697Z,8.57
2018-11-03T03:54:29.589Z,9.23
2018-11-03T03:56:58.194Z,9.53
2018-11-03T03:59:27.311Z,8.43
2018-11-03T04:01:56.581Z,10.57
2018-11-03T04:04:25.970Z,9.80
2018-11-03T04:06:55.540Z,9.53
2018-11-03T04:09:24.631Z,10.43
2018-11-03T04:11:54.040Z,13.40
2018-11-03T04:14:22.932Z,12.43
2018-11-03T04:16:52.414Z,10.93
2018-11-03T04:19:21.455Z,12.97
2018-11-03T04:21:50.811Z,12.13
2018-11-03T04:24:19.402Z,11.80
2018-11-03T04:26:48.458Z,10.93
2018-11-03T04:29:18.084Z,12.87
2018-11-03T04:31:47.139Z,12.37
2018-11-03T04:34:16.492Z,10.53
2018-11-03T04:36:45.640Z,11.47
2018-11-03T04:39:15.256Z,12.23
2018-11-03T04:41:44.170Z,9.33
2018-11-03T04:44:13.484Z,9.70
2018-11-03T04:46:42.859Z,13.07
2018-11-03T04:49:12.010Z,11.03
2018-11-03T04:51:41.439Z,12.00
2018-11-03T04:54:10.931Z,12.93
2018-11-03T04:56:39.543Z,11.67
2018-11-03T04:59:09.376Z,12.13
2018-11-03T05:01:38.165Z,11.13
2018-11-03T05:04:07.112Z,12.57
2018-11-03T05:06:37.114Z,14.67
2018-11-03T05:09:08.413Z,12.10
2018-11-03T05:11:37.608Z,10.83
2018-11-03T05:14:08.020Z,12.67
2018-11-03T05:16:37.228Z,11.43
2018-11-03T05:19:06.429Z,15.73
2018-11-03T05:21:35.439Z,13.47
2018-11-03T05:24:04.842Z,15.90
2018-11-03T05:26:34.077Z,14.67
2018-11-03T05:29:03.679Z,11.87
2018-11-03T05:31:32.620Z,15.60
2018-11-03T05:34:01.723Z,11.33
2018-11-03T05:36:30.893Z,14.43
2018-11-03T05:39:00.044Z,14.37
2018-11-03T05:41:28.940Z,15.20
2018-11-03T05:43:57.817Z,16.40
2018-11-03T05:46:26.720Z,12.77
2018-11-03T05:48:55.778Z,12.60
2018-11-03T05:51:25.065Z,13.40
2018-11-03T05:53:54.187Z,16.57
2018-11-03T05:56:23.447Z,14.60
2018-11-03T05:58:52.819Z,16.00
2018-11-03T06:01:22.975Z,15.03
2018-11-03T06:03:52.005Z,14.43
2018-11-03T06:06:20.920Z,14.27
2018-11-03T06:08:49.767Z,13.53
2018-11-03T06:11:18.869Z,19.30
2018-11-03T06:13:48.398Z,15.83
2018-11-03T06:16:17.523Z,17.13
2018-11-03T06:18:47.213Z,18.10
2018-11-03T06:21:16.842Z,17.60
2018-11-03T06:23:46.358Z,13.00
2018-11-03T06:26:15.002Z,15.67
2018-11-03T06:28:44.269Z,16.17
2018-11-03T06:31:13.182Z,15.27
2018-11-03T06:33:43.201Z,15.13
2018-11-03T06:36:12.546Z,16.57
2018-11-03T06:38:41.685Z,17.10
2018-11-03T06:41:10.954Z,16.93
2018-11-03T06:43:40.148Z,16.17
2018-11-03T06:46:09.550Z,15.83
2018-11-03T06:48:38.661Z,16.67
2018-11-03T06:51:08.067Z,16.60
2018-11-03T06:53:37.197Z,18.57
2018-11-03T06:56:05.939Z,17.23
2018-11-03T06:58:35.853Z,16.13
2018-11-03T07:01:05.098Z,17.23
2018-11-03T07:03:34.380Z,19.93
2018-11-03T07:06:03.799Z,17.87
2018-11-03T07:08:33.095Z,16.60
2018-11-03T07:11:02.008Z,17.13
2018-11-03T07:13:31.132Z,14.40
2018-11-03T07:15:59.958Z,19.60
2018-11-03T07:18:29.140Z,19.07
2018-11-03T07:20:58.473Z,18.23
2018-11-03T07:23:29.499Z,19.63
2018-11-03T07:25:59.570Z,21.53
2018-11-03T07:28:37.552Z,20.20
2018-11-03T07:31:08.925Z,17.57
2018-11-03T07:33:48.165Z,23.70
2018-11-03T07:36:32.922Z,23.27
2018-11-03T07:39:36.325Z,24.20
2018-11-03T07:42:10.554Z,26.23
2018-11-03T07:44:39.920Z,24.77
2018-11-03T07:47:14.798Z,24.50
2018-11-03T07:49:52.961Z,24.97
2018-11-03T07:52:28.409Z,22.83
2018-11-03T07:55:04.029Z,21.40
2018-11-03T07:57:37.594Z,24.53
2018-11-03T08:00:10.931Z,23.80
2018-11-03T08:02:42.974Z,24.17
2018-11-03T08:05:14.748Z,22.40
2018-11-03T08:07:43.656Z,20.73
2018-11-03T08:10:13.150Z,19.83
2018-11-03T08:12:41.983Z,23.83
2018-11-03T08:15:11.751Z,20.70
2018-11-03T08:17:50.475Z,22.60
2018-11-03T08:20:34.526Z,21.37
2018-11-03T08:23:08.807Z,21.90
2018-11-03T08:25:53.927Z,20.93
2018-11-03T08:28:28.057Z,22.27
2018-11-03T08:31:00.634Z,19.97
2018-11-03T08:33:33.279Z,18.40
2018-11-03T08:36:12.863Z,20.63
2018-11-03T08:38:47.908Z,17.30
2018-11-03T08:41:17.202Z,19.13
2018-11-03T08:43:46.309Z,18.20
2018-11-03T08:46:26.092Z,17.93
2018-11-03T08:49:04.770Z,17.33
2018-11-03T08:51:43.160Z,17.13
2018-11-03T08:54:16.742Z,18.83
2018-11-03T08:59:33.409Z,15.17
2018-11-03T09:02:02.187Z,17.30
2018-11-03T09:04:43.497Z,16.87
2018-11-03T09:07:26.623Z,18.53
2018-11-03T09:09:56.697Z,17.50
2018-11-03T09:12:27.631Z,18.97
2018-11-03T09:14:58.169Z,21.77
2018-11-03T09:17:42.203Z,20.03
2018-11-03T09:20:37.111Z,18.40
2018-11-03T09:23:24.822Z,19.90
2018-11-03T09:25:59.454Z,16.90
2018-11-03T09:28:40.916Z,16.47
2018-11-03T09:31:21.354Z,17.80
2018-11-03T09:34:01.693Z,13.93
2018-11-03T09:36:38.470Z,15.97
2018-11-03T09:39:09.699Z,16.10
2018-11-03T09:41:42.899Z,12.37
2018-11-03T09:44:22.844Z,14.33
2018-11-03T09:46:56.374Z,13.53
2018-11-03T09:49:40.413Z,14.13
2018-11-03T09:52:16.979Z,13.17
2018-11-03T09:54:57.212Z,10.40
2018-11-03T09:57:28.804Z,11.57
2018-11-03T09:59:58.278Z,14.27
2018-11-03T10:02:28.937Z,14.60
2018-11-03T10:04:59.556Z,14.27
2018-11-03T10:07:28.485Z,13.20
2018-11-03T10:09:58.052Z,13.37
2018-11-03T10:12:26.657Z,10.67
2018-11-03T10:14:58.265Z,11.50
2018-11-03T10:17:55.796Z,12.53
2018-11-03T10:20:29.566Z,12.43
2018-11-03T10:23:09.943Z,14.67
2018-11-03T10:25:40.321Z,14.67
2018-11-03T10:28:10.338Z,15.93
2018-11-03T10:30:45.438Z,13.27
2018-11-03T10:33:14.318Z,14.30
2018-11-03T10:35:43.657Z,13.30
2018-11-03T10:38:13.110Z,16.23
2018-11-03T10:40:43.023Z,14.70
2018-11-03T10:43:12.185Z,14.13
2018-11-03T10:45:42.624Z,15.80
2018-11-03T10:48:12.051Z,15.50
2018-11-03T10:50:41.351Z,12.93
2018-11-03T10:53:10.779Z,14.73
2018-11-03T10:55:39.852Z,14.27
2018-11-03T10:58:08.815Z,15.43
2018-11-03T11:00:43.575Z,12.60
2018-11-03T11:03:17.626Z,13.70
2018-11-03T11:05:52.890Z,15.73
2018-11-03T11:08:26.574Z,14.63
2018-11-03T11:11:00.417Z,15.40
2018-11-03T11:13:31.058Z,18.07
2018-11-03T11:16:00.618Z,15.40
2018-11-03T11:18:29.680Z,13.00
2018-11-03T11:20:59.295Z,15.03
2018-11-03T11:23:29.185Z,12.10
2018-11-03T11:25:58.281Z,12.67
2018-11-03T11:28:27.326Z,13.43
2018-11-03T11:30:58.262Z,14.20
2018-11-03T11:33:26.922Z,14.73
2018-11-03T11:35:56.130Z,14.37
2018-11-03T11:38:25.871Z,16.63
2018-11-03T11:40:55.861Z,13.43
2018-11-03T11:43:24.944Z,14.00
2018-11-03T11:45:54.208Z,13.40
2018-11-03T11:48:23.272Z,14.43
2018-11-03T11:50:53.102Z,15.33
2018-11-03T11:53:22.152Z,16.17
2018-11-03T11:55:51.605Z,13.70
2018-11-03T11:58:20.424Z,14.40
2018-11-03T12:00:49.246Z,15.70
2018-11-03T12:03:18.861Z,13.57
2018-11-03T12:05:48.560Z,15.00
2018-11-03T12:08:17.536Z,12.30
2018-11-03T12:10:47.897Z,11.87
2018-11-03T12:13:17.574Z,10.53
2018-11-03T12:15:46.705Z,16.27
2018-11-03T12:18:15.940Z,12.00
2018-11-03T12:20:45.158Z,12.60
2018-11-03T12:23:13.944Z,12.43
2018-11-03T12:25:44.430Z,22.63
2018-11-03T12:28:13.749Z,21.27
2018-11-03T12:30:42.685Z,13.80
2018-11-03T12:33:12.335Z,10.57
2018-11-03T12:35:41.450Z,12.93
2018-11-03T12:38:11.296Z,15.40
2018-11-03T12:40:40.492Z,11.33
2018-11-03T12:43:09.621Z,11.87
2018-11-03T12:45:38.818Z,10.57
2018-11-03T12:48:08.619Z,9.73
2018-11-03T12:50:37.746Z,11.63
2018-11-03T12:53:07.638Z,10.83
2018-11-03T12:55:37.035Z,11.10
2018-11-03T12:58:07.141Z,12.83
2018-11-03T13:00:36.346Z,13.17
2018-11-03T13:03:06.056Z,12.00
2018-11-03T13:05:35.880Z,11.40
2018-11-03T13:08:05.212Z,9.90
2018-11-03T13:10:35.233Z,9.50
2018-11-03T13:13:04.552Z,12.23
2018-11-03T13:15:33.671Z,10.03
2018-11-03T13:18:03.103Z,11.23
2018-11-03T13:20:31.954Z,11.77
2018-11-03T13:23:01.154Z,10.03
2018-11-03T13:25:30.723Z,13.00
2018-11-03T13:27:59.945Z,10.93
2018-11-03T13:30:28.784Z,11.97
2018-11-03T13:32:58.097Z,12.10
2018-11-03T13:35:27.605Z,11.67
2018-11-03T13:37:56.607Z,9.47
2018-11-03T13:40:26.090Z,10.97
2018-11-03T13:42:55.938Z,10.90
2018-11-03T13:45:25.375Z,13.20
2018-11-03T13:47:54.630Z,12.67
2018-11-03T13:50:24.088Z,11.93
2018-11-03T13:52:53.537Z,12.23
2018-11-03T13:55:22.722Z,10.67
2018-11-03T13:57:51.308Z,10.90
2018-11-03T14:00:20.527Z,14.20
2018-11-03T14:02:49.547Z,11.40
2018-11-03T14:05:18.639Z,10.73
2018-11-03T14:07:47.638Z,14.77
2018-11-03T14:10:17.461Z,12.43
2018-11-03T14:12:47.268Z,9.73
2018-11-03T14:15:17.419Z,10.93
2018-11-03T14:17:46.768Z,11.27
2018-11-03T14:20:16.928Z,12.83
2018-11-03T14:22:46.845Z,11.40
2018-11-03T14:25:17.304Z,12.00
2018-11-03T14:27:47.910Z,11.10
2018-11-03T14:30:16.956Z,11.23
2018-11-03T14:32:46.602Z,13.27
2018-11-03T14:35:16.124Z,11.93
2018-11-03T14:37:45.869Z,10.70
2018-11-03T14:40:15.803Z,12.27
2018-11-03T14:42:44.929Z,10.23
2018-11-03T14:45:15.452Z,10.17
2018-11-03T14:47:44.955Z,10.43
2018-11-03T14:50:14.061Z,11.53
2018-11-03T14:52:43.779Z,10.67
2018-11-03T14:55:13.713Z,10.90
2018-11-03T14:57:43.643Z,12.93
2018-11-03T15:00:15.028Z,10.30
2018-11-03T15:02:44.275Z,13.47
2018-11-03T15:05:13.841Z,11.43
2018-11-03T15:07:43.017Z,13.53
2018-11-03T15:10:12.437Z,13.67
2018-11-03T15:12:41.923Z,12.73
2018-11-03T15:15:12.689Z,13.50
2018-11-03T15:17:42.210Z,12.87
2018-11-03T15:20:12.789Z,12.77
2018-11-03T15:22:42.247Z,12.90
2018-11-03T15:25:15.736Z,12.30
2018-11-03T15:27:44.937Z,11.00
2018-11-03T15:30:15.195Z,14.97
2018-11-03T15:32:49.641Z,11.53
2018-11-03T15:35:26.709Z,14.27
2018-11-03T15:38:02.656Z,11.97
2018-11-03T15:40:37.726Z,11.70
2018-11-03T15:43:11.794Z,14.07
2018-11-03T15:45:40.613Z,13.93
2018-11-03T15:48:09.529Z,10.47
2018-11-03T15:50:49.969Z,12.73
2018-11-03T15:53:23.558Z,15.57
2018-11-03T15:56:00.697Z,14.47
2018-11-03T15:58:32.530Z,13.53
2018-11-03T16:03:40.623Z,14.57
2018-11-03T16:06:09.682Z,18.67
2018-11-03T16:08:39.140Z,11.80
2018-11-03T16:11:09.518Z,14.57
2018-11-03T16:13:38.491Z,14.20
2018-11-03T16:16:07.581Z,13.43
2018-11-03T16:18:36.586Z,14.57
2018-11-03T16:21:06.410Z,14.27
2018-11-03T16:23:46.071Z,15.33
2018-11-03T16:26:20.395Z,12.37
2018-11-03T16:29:05.630Z,15.90
2018-11-03T16:31:35.181Z,14.60
2018-11-03T16:34:07.831Z,15.67
2018-11-03T16:36:38.602Z,15.73
2018-11-03T16:39:21.758Z,12.63
2018-11-03T16:41:57.670Z,16.17
2018-11-03T16:44:32.499Z,15.37
2018-11-03T16:47:01.626Z,16.53
2018-11-03T16:49:30.411Z,16.63
2018-11-03T16:51:59.644Z,33.30
2018-11-03T16:54:29.616Z,20.07
2018-11-03T16:56:58.765Z,22.87
2018-11-03T16:59:28.573Z,20.60
2018-11-03T17:01:57.212Z,20.03
2018-11-03T17:04:27.099Z,19.80
2018-11-03T17:06:56.717Z,14.63
2018-11-03T17:09:26.331Z,20.83
2018-11-03T17:11:55.782Z,15.37
2018-11-03T17:14:24.375Z,14.97
2018-11-03T17:16:53.394Z,15.70
2018-11-03T17:19:22.594Z,15.70
2018-11-03T17:21:52.360Z,15.47
2018-11-03T17:24:21.517Z,18.27
2018-11-03T17:26:50.717Z,16.23
2018-11-03T17:29:20.793Z,16.20
2018-11-03T17:31:50.055Z,19.10
2018-11-03T17:34:18.654Z,24.07
2018-11-03T17:36:47.584Z,23.00
2018-11-03T17:39:16.141Z,17.87
2018-11-03T17:41:45.209Z,17.83
2018-11-03T17:44:14.245Z,15.83
2018-11-03T17:46:43.473Z,20.00
2018-11-03T17:49:12.788Z,19.47
2018-11-03T17:51:42.285Z,20.93
2018-11-03T17:54:12.377Z,18.20
2018-11-03T17:56:42.313Z,18.80
2018-11-03T17:59:12.335Z,26.83
2018-11-03T18:01:42.666Z,32.03
2018-11-03T18:04:16.101Z,33.77
2018-11-03T18:06:50.987Z,26.93
2018-11-03T18:09:28.329Z,26.57
2018-11-03T18:11:58.467Z,27.73
2018-11-03T18:17:10.643Z,27.70
2018-11-03T18:19:45.092Z,25.27
2018-11-03T18:22:20.668Z,24.43
2018-11-03T18:25:00.455Z,23.23
2018-11-03T18:27:32.847Z,21.90
2018-11-03T18:30:10.093Z,22.63
2018-11-03T18:32:53.721Z,26.07
2018-11-03T18:35:29.249Z,19.57
2018-11-03T18:38:04.089Z,20.10
2018-11-03T18:40:40.991Z,21.53
2018-11-03T18:43:10.145Z,26.80
2018-11-03T18:45:39.036Z,26.17
2018-11-03T18:48:07.951Z,24.00
2018-11-03T18:50:37.126Z,27.03
2018-11-03T18:53:08.166Z,30.73
2018-11-03T18:55:37.126Z,26.57
2018-11-03T18:58:06.623Z,28.20
2018-11-03T19:00:36.593Z,22.47
2018-11-03T19:03:05.458Z,26.47
2018-11-03T19:05:35.434Z,24.67
2018-11-03T19:08:05.129Z,27.87
2018-11-03T19:10:35.289Z,32.10
2018-11-03T19:13:04.196Z,31.97
2018-11-03T19:15:33.456Z,37.07
2018-11-03T19:18:02.603Z,28.50
2018-11-03T19:20:33.038Z,30.70
2018-11-03T19:23:01.605Z,29.47
2018-11-03T19:25:30.704Z,28.30
2018-11-03T19:28:02.034Z,26.97
2018-11-03T19:30:31.938Z,28.27
2018-11-03T19:33:01.321Z,27.73
2018-11-03T19:35:34.089Z,27.07
2018-11-03T19:38:03.295Z,21.93
2018-11-03T19:40:32.532Z,24.33
2018-11-03T19:43:03.209Z,25.63
2018-11-03T19:45:32.673Z,27.60
2018-11-03T19:48:01.625Z,27.97
2018-11-03T19:50:30.176Z,23.77
2018-11-03T19:52:59.073Z,27.27
2018-11-03T19:55:28.371Z,26.60
2018-11-03T19:57:58.480Z,29.27
2018-11-03T20:00:27.656Z,26.90
2018-11-03T20:02:56.833Z,24.40
2018-11-03T20:05:25.585Z,26.87
2018-11-03T20:07:55.145Z,28.80
2018-11-03T20:10:24.241Z,25.40
2018-11-03T20:12:53.126Z,28.43
2018-11-03T20:15:22.640Z,27.80
2018-11-03T20:17:51.892Z,29.07
2018-11-03T20:20:21.957Z,26.20
2018-11-03T20:22:50.981Z,28.60
2018-11-03T20:25:20.639Z,27.47
2018-11-03T20:27:49.823Z,24.93
2018-11-03T20:30:18.940Z,28.73
2018-11-03T20:32:47.564Z,29.03
2018-11-03T20:35:17.881Z,26.93
2018-11-03T20:37:47.327Z,25.60
2018-11-03T20:40:16.695Z,24.77
2018-11-03T20:42:46.148Z,25.73
2018-11-03T20:45:15.968Z,28.20
2018-11-03T20:47:46.677Z,28.60
2018-11-03T20:50:15.556Z,28.57
2018-11-03T20:52:44.619Z,26.60
2018-11-03T20:55:13.714Z,27.33
2018-11-03T20:57:43.200Z,28.13
2018-11-03T21:00:14.705Z,28.37
2018-11-03T21:02:45.507Z,29.07
2018-11-03T21:05:14.703Z,32.03
2018-11-03T21:07:43.968Z,28.73
2018-11-03T21:10:13.374Z,30.53
2018-11-03T21:12:43.807Z,32.73
2018-11-03T21:15:13.586Z,30.10
2018-11-03T21:17:42.512Z,32.67
2018-11-03T21:20:12.567Z,29.97
2018-11-03T21:22:41.761Z,33.10
2018-11-03T21:25:11.220Z,31.43
2018-11-03T21:27:40.965Z,35.93
2018-11-03T21:30:11.460Z,31.70
2018-11-03T21:32:41.271Z,30.73
2018-11-03T21:35:10.499Z,29.80
2018-11-03T21:37:39.839Z,30.87
2018-11-03T21:40:08.866Z,30.00
2018-11-03T21:42:37.958Z,31.50
2018-11-03T21:45:07.648Z,31.07
2018-11-03T21:47:36.643Z,28.37
2018-11-03T21:50:05.845Z,30.90
2018-11-03T21:52:35.081Z,30.57
2018-11-03T21:55:05.053Z,27.43
2018-11-03T21:57:35.137Z,31.07
2018-11-03T22:00:05.217Z,31.10
2018-11-03T22:02:35.225Z,32.43
2018-11-03T22:05:04.400Z,32.93
2018-11-03T22:07:34.021Z,32.10
2018-11-03T22:10:03.401Z,32.20
2018-11-03T22:12:32.613Z,30.23
2018-11-03T22:15:02.434Z,27.40
2018-11-03T22:17:32.603Z,27.10
2018-11-03T22:20:01.654Z,29.97
2018-11-03T22:22:31.668Z,31.97
2018-11-03T22:25:00.907Z,29.67
2018-11-03T22:27:30.618Z,26.80
2018-11-03T22:30:00.256Z,30.67
2018-11-03T22:32:29.267Z,28.63
2018-11-03T22:34:58.768Z,29.30
2018-11-03T22:37:28.369Z,27.40
2018-11-03T22:39:58.196Z,29.60
2018-11-03T22:42:27.657Z,27.90
2018-11-03T22:44:57.573Z,27.57
2018-11-03T22:47:27.333Z,30.60
2018-11-03T22:49:56.519Z,28.93
2018-11-03T22:52:25.796Z,30.90
2018-11-03T22:54:55.462Z,27.50
2018-11-03T22:57:24.542Z,30.03
2018-11-03T22:59:53.510Z,26.27
2018-11-03T23:02:22.456Z,25.03
2018-11-03T23:04:51.929Z,25.97
2018-11-03T23:07:21.168Z,26.13
2018-11-03T23:09:51.096Z,30.13
2018-11-03T23:12:20.000Z,27.53
2018-11-03T23:14:50.179Z,28.13
2018-11-03T23:17:19.007Z,26.53
2018-11-03T23:19:48.223Z,25.77
2018-11-03T23:22:17.879Z,28.20
2018-11-03T23:24:46.504Z,24.73
2018-11-03T23:27:16.009Z,29.70
2018-11-03T23:29:44.895Z,26.77
2018-11-03T23:32:13.742Z,27.13
2018-11-03T23:34:43.442Z,26.63
2018-11-03T23:37:12.545Z,25.13
2018-11-03T23:39:42.156Z,28.33
2018-11-03T23:42:11.725Z,28.50
2018-11-03T23:44:40.625Z,26.53
2018-11-03T23:47:10.173Z,27.60
2018-11-03T23:49:39.531Z,28.50
2018-11-03T23:52:09.883Z,26.27
2018-11-03T23:54:39.154Z,25.20
2018-11-03T23:57:08.110Z,25.97
2018-11-03T23:59:37.660Z,28.43
